Upstream stations:
SHEF ID: PLYK1 COTTONWOOD R NR PLYMOUTH, KS
STATION TYPE:
Regulating: Stage = 28.00, Flow = 11213
PRECIP STAGE STAGE(2) RIV-FLOW BAT-LOAD
in ft ft cfs volt
Ccp-Rev Ccp-Rev Ccp-Rev Ccp-Rev Ccp-Rev
(US/Central)
11/24 00:00 0.00 2.69 3.10 165 12.13
11/24 01:00 0.00 2.69 3.11 165 12.13
11/24 02:00 0.00 2.70 3.10 167 12.13
11/24 03:00 0.00 2.69 3.11 165 12.07
11/24 04:00 0.00 2.65 3.10 160 12.07
11/24 05:00 0.00 2.68 3.10 164 12.07
11/24 06:00 0.00 2.69 3.10 165 12.07
11/24 07:00 0.00 2.68 3.10 164 12.01
11/24 08:00 0.00 2.68 3.10 164 12.01
11/24 09:00 0.00 2.69 3.10 165 12.01
11/24 10:00 0.00 2.69 3.10 165 12.19
11/24 11:00 0.00 2.66 3.10 161 12.19
11/24 12:00 0.00 2.66 3.10 161 12.19
11/24 13:00 0.00 2.66 3.10 161 12.19
11/24 14:00 0.00 2.68 3.10 164 12.19
11/24 15:00 0.00 2.69 3.10 165 12.13
11/24 16:00 0.00 2.69 3.10 165 12.13
11/24 17:00 0.00 2.69 3.10 165 12.07
11/24 18:00 0.00 2.68 3.10 164 12.07
11/24 19:00 0.00 2.65 3.10 160 12.01
11/24 20:00 0.00 2.67 3.10 163 12.01
11/24 21:00 0.00 2.67 3.10 163 12.01
11/24 22:00 0.00 2.65 3.11 160 11.95
11/24 23:00 0.00 2.67 3.11 163 11.95